sensor_id;sensor_type;location;lat;lon;timestamp;P1;durP1;ratioP1;P2;durP2;ratioP2
15474;SDS011;7839;50.462;9.678;2023-06-10T00:00:50;1.65;;;1.55;;
15474;SDS011;7839;50.462;9.678;2023-06-10T00:07:31;1.50;;;1.40;;
15474;SDS011;7839;50.462;9.678;2023-06-10T00:14:11;1.50;;;1.42;;
15474;SDS011;7839;50.462;9.678;2023-06-10T00:20:51;1.52;;;1.42;;
15474;SDS011;7839;50.462;9.678;2023-06-10T00:27:35;1.40;;;1.30;;
15474;SDS011;7839;50.462;9.678;2023-06-10T00:34:16;1.85;;;1.40;;
15474;SDS011;7839;50.462;9.678;2023-06-10T00:40:56;1.70;;;1.60;;
15474;SDS011;7839;50.462;9.678;2023-06-10T00:47:36;1.30;;;1.30;;
15474;SDS011;7839;50.462;9.678;2023-06-10T00:54:18;1.30;;;1.30;;
15474;SDS011;7839;50.462;9.678;2023-06-10T01:00:58;1.75;;;1.65;;
15474;SDS011;7839;50.462;9.678;2023-06-10T01:14:19;1.17;;;1.10;;
15474;SDS011;7839;50.462;9.678;2023-06-10T01:21:00;1.58;;;1.48;;
15474;SDS011;7839;50.462;9.678;2023-06-10T01:27:40;1.95;;;1.20;;
15474;SDS011;7839;50.462;9.678;2023-06-10T01:34:22;1.45;;;1.35;;
15474;SDS011;7839;50.462;9.678;2023-06-10T01:41:03;1.52;;;1.48;;
15474;SDS011;7839;50.462;9.678;2023-06-10T01:47:43;1.27;;;1.20;;
15474;SDS011;7839;50.462;9.678;2023-06-10T01:54:23;1.42;;;1.40;;
15474;SDS011;7839;50.462;9.678;2023-06-10T02:01:04;1.67;;;1.48;;
15474;SDS011;7839;50.462;9.678;2023-06-10T02:07:44;1.45;;;1.42;;
15474;SDS011;7839;50.462;9.678;2023-06-10T02:14:25;1.35;;;1.35;;
15474;SDS011;7839;50.462;9.678;2023-06-10T02:21:05;1.67;;;1.38;;
15474;SDS011;7839;50.462;9.678;2023-06-10T02:27:45;1.15;;;1.15;;
15474;SDS011;7839;50.462;9.678;2023-06-10T02:34:25;1.33;;;1.33;;
15474;SDS011;7839;50.462;9.678;2023-06-10T02:41:06;1.50;;;1.50;;
15474;SDS011;7839;50.462;9.678;2023-06-10T02:47:46;1.30;;;1.30;;
15474;SDS011;7839;50.462;9.678;2023-06-10T02:54:26;1.40;;;1.30;;
15474;SDS011;7839;50.462;9.678;2023-06-10T03:01:07;1.13;;;1.13;;
15474;SDS011;7839;50.462;9.678;2023-06-10T03:07:49;1.10;;;1.10;;
15474;SDS011;7839;50.462;9.678;2023-06-10T03:14:29;1.35;;;1.33;;
15474;SDS011;7839;50.462;9.678;2023-06-10T03:21:09;1.35;;;1.33;;
15474;SDS011;7839;50.462;9.678;2023-06-10T03:27:50;1.63;;;1.52;;
15474;SDS011;7839;50.462;9.678;2023-06-10T03:34:31;1.10;;;1.10;;
15474;SDS011;7839;50.462;9.678;2023-06-10T03:41:11;1.08;;;1.08;;
15474;SDS011;7839;50.462;9.678;2023-06-10T03:47:51;1.40;;;1.30;;
15474;SDS011;7839;50.462;9.678;2023-06-10T03:54:32;1.80;;;1.25;;
15474;SDS011;7839;50.462;9.678;2023-06-10T04:01:14;1.40;;;1.40;;
15474;SDS011;7839;50.462;9.678;2023-06-10T04:07:54;1.30;;;1.30;;
15474;SDS011;7839;50.462;9.678;2023-06-10T04:14:34;1.15;;;1.15;;
15474;SDS011;7839;50.462;9.678;2023-06-10T04:21:17;1.23;;;1.20;;
15474;SDS011;7839;50.462;9.678;2023-06-10T04:27:57;1.05;;;1.05;;
15474;SDS011;7839;50.462;9.678;2023-06-10T04:34:37;1.23;;;1.23;;
15474;SDS011;7839;50.462;9.678;2023-06-10T04:41:20;1.35;;;1.30;;
15474;SDS011;7839;50.462;9.678;2023-06-10T04:48:02;0.85;;;0.85;;
15474;SDS011;7839;50.462;9.678;2023-06-10T04:54:43;1.20;;;1.20;;
15474;SDS011;7839;50.462;9.678;2023-06-10T05:01:23;1.25;;;1.25;;
15474;SDS011;7839;50.462;9.678;2023-06-10T05:08:03;1.27;;;1.27;;
15474;SDS011;7839;50.462;9.678;2023-06-10T05:14:44;1.38;;;1.30;;
15474;SDS011;7839;50.462;9.678;2023-06-10T05:21:24;1.55;;;1.45;;
15474;SDS011;7839;50.462;9.678;2023-06-10T05:28:05;1.42;;;1.38;;
15474;SDS011;7839;50.462;9.678;2023-06-10T05:34:49;4.38;;;3.97;;
15474;SDS011;7839;50.462;9.678;2023-06-10T05:41:29;1.70;;;1.60;;
15474;SDS011;7839;50.462;9.678;2023-06-10T05:48:10;6.20;;;5.60;;
15474;SDS011;7839;50.462;9.678;2023-06-10T05:54:50;4.82;;;4.40;;
15474;SDS011;7839;50.462;9.678;2023-06-10T06:01:31;6.43;;;5.82;;
15474;SDS011;7839;50.462;9.678;2023-06-10T06:08:11;7.18;;;5.32;;
15474;SDS011;7839;50.462;9.678;2023-06-10T06:14:53;6.78;;;5.82;;
15474;SDS011;7839;50.462;9.678;2023-06-10T06:21:33;5.93;;;5.10;;
15474;SDS011;7839;50.462;9.678;2023-06-10T06:28:13;6.30;;;5.70;;
15474;SDS011;7839;50.462;9.678;2023-06-10T06:34:54;8.40;;;5.97;;
15474;SDS011;7839;50.462;9.678;2023-06-10T06:41:37;6.20;;;5.60;;
15474;SDS011;7839;50.462;9.678;2023-06-10T06:48:18;10.50;;;6.83;;
15474;SDS011;7839;50.462;9.678;2023-06-10T06:54:58;8.50;;;6.47;;
15474;SDS011;7839;50.462;9.678;2023-06-10T07:01:38;7.57;;;6.23;;
15474;SDS011;7839;50.462;9.678;2023-06-10T07:08:19;6.93;;;5.90;;
15474;SDS011;7839;50.462;9.678;2023-06-10T07:14:59;6.93;;;5.97;;
15474;SDS011;7839;50.462;9.678;2023-06-10T07:21:39;9.70;;;7.33;;
15474;SDS011;7839;50.462;9.678;2023-06-10T07:28:19;7.97;;;6.60;;
15474;SDS011;7839;50.462;9.678;2023-06-10T07:35:00;7.80;;;6.43;;
15474;SDS011;7839;50.462;9.678;2023-06-10T07:41:40;6.80;;;5.90;;
15474;SDS011;7839;50.462;9.678;2023-06-10T07:48:20;6.70;;;5.30;;
15474;SDS011;7839;50.462;9.678;2023-06-10T07:55:00;8.63;;;5.23;;
15474;SDS011;7839;50.462;9.678;2023-06-10T08:01:40;9.00;;;5.93;;
15474;SDS011;7839;50.462;9.678;2023-06-10T08:08:22;6.63;;;5.67;;
15474;SDS011;7839;50.462;9.678;2023-06-10T08:15:03;8.48;;;5.10;;
15474;SDS011;7839;50.462;9.678;2023-06-10T08:21:44;6.43;;;5.50;;
15474;SDS011;7839;50.462;9.678;2023-06-10T08:28:25;8.52;;;4.80;;
15474;SDS011;7839;50.462;9.678;2023-06-10T08:35:05;10.35;;;5.13;;
15474;SDS011;7839;50.462;9.678;2023-06-10T08:41:47;5.68;;;5.10;;
15474;SDS011;7839;50.462;9.678;2023-06-10T08:48:31;9.10;;;5.10;;
15474;SDS011;7839;50.462;9.678;2023-06-10T08:55:32;6.00;;;4.78;;
15474;SDS011;7839;50.462;9.678;2023-06-10T09:02:13;6.68;;;5.28;;
15474;SDS011;7839;50.462;9.678;2023-06-10T09:08:54;7.72;;;4.80;;
15474;SDS011;7839;50.462;9.678;2023-06-10T09:15:34;7.47;;;5.18;;
15474;SDS011;7839;50.462;9.678;2023-06-10T09:22:14;9.00;;;5.27;;
15474;SDS011;7839;50.462;9.678;2023-06-10T09:28:57;5.60;;;4.57;;
15474;SDS011;7839;50.462;9.678;2023-06-10T09:35:44;7.00;;;5.30;;
15474;SDS011;7839;50.462;9.678;2023-06-10T09:42:25;5.30;;;4.82;;
15474;SDS011;7839;50.462;9.678;2023-06-10T09:49:05;5.47;;;4.50;;
15474;SDS011;7839;50.462;9.678;2023-06-10T09:55:45;5.20;;;4.60;;
15474;SDS011;7839;50.462;9.678;2023-06-10T10:02:25;8.63;;;4.65;;
15474;SDS011;7839;50.462;9.678;2023-06-10T10:09:05;7.68;;;4.47;;
15474;SDS011;7839;50.462;9.678;2023-06-10T10:15:46;11.27;;;4.55;;
15474;SDS011;7839;50.462;9.678;2023-06-10T10:22:26;5.15;;;3.80;;
15474;SDS011;7839;50.462;9.678;2023-06-10T10:29:14;4.43;;;4.03;;
15474;SDS011;7839;50.462;9.678;2023-06-10T10:35:56;5.43;;;4.05;;
15474;SDS011;7839;50.462;9.678;2023-06-10T10:42:38;4.30;;;3.90;;
15474;SDS011;7839;50.462;9.678;2023-06-10T10:49:18;4.28;;;3.83;;
15474;SDS011;7839;50.462;9.678;2023-06-10T10:56:01;6.70;;;3.75;;
15474;SDS011;7839;50.462;9.678;2023-06-10T11:02:45;4.80;;;3.40;;
15474;SDS011;7839;50.462;9.678;2023-06-10T11:09:29;5.13;;;4.07;;
15474;SDS011;7839;50.462;9.678;2023-06-10T11:16:09;4.47;;;3.97;;
15474;SDS011;7839;50.462;9.678;2023-06-10T11:22:58;6.15;;;3.58;;
15474;SDS011;7839;50.462;9.678;2023-06-10T11:29:38;7.05;;;3.45;;
15474;SDS011;7839;50.462;9.678;2023-06-10T11:36:18;3.42;;;3.17;;
15474;SDS011;7839;50.462;9.678;2023-06-10T11:42:59;6.05;;;3.75;;
15474;SDS011;7839;50.462;9.678;2023-06-10T11:49:39;3.70;;;3.15;;
15474;SDS011;7839;50.462;9.678;2023-06-10T11:56:20;9.05;;;3.92;;
15474;SDS011;7839;50.462;9.678;2023-06-10T12:03:02;5.32;;;3.53;;
15474;SDS011;7839;50.462;9.678;2023-06-10T12:09:42;4.70;;;3.33;;
15474;SDS011;7839;50.462;9.678;2023-06-10T12:16:22;4.95;;;3.75;;
15474;SDS011;7839;50.462;9.678;2023-06-10T12:23:08;3.97;;;3.47;;
15474;SDS011;7839;50.462;9.678;2023-06-10T12:29:52;3.45;;;3.25;;
15474;SDS011;7839;50.462;9.678;2023-06-10T12:36:33;3.40;;;3.13;;
15474;SDS011;7839;50.462;9.678;2023-06-10T12:43:24;3.13;;;2.78;;
15474;SDS011;7839;50.462;9.678;2023-06-10T12:50:05;4.07;;;3.50;;
15474;SDS011;7839;50.462;9.678;2023-06-10T12:56:46;3.90;;;3.60;;
15474;SDS011;7839;50.462;9.678;2023-06-10T13:03:26;3.67;;;3.33;;
15474;SDS011;7839;50.462;9.678;2023-06-10T13:10:06;2.83;;;2.63;;
15474;SDS011;7839;50.462;9.678;2023-06-10T13:16:47;3.50;;;2.90;;
15474;SDS011;7839;50.462;9.678;2023-06-10T13:23:27;3.63;;;3.17;;
15474;SDS011;7839;50.462;9.678;2023-06-10T13:30:09;3.38;;;3.15;;
15474;SDS011;7839;50.462;9.678;2023-06-10T13:36:49;3.92;;;3.20;;
15474;SDS011;7839;50.462;9.678;2023-06-10T13:43:29;3.22;;;2.97;;
15474;SDS011;7839;50.462;9.678;2023-06-10T13:50:10;4.00;;;3.63;;
15474;SDS011;7839;50.462;9.678;2023-06-10T13:56:50;6.40;;;3.80;;
15474;SDS011;7839;50.462;9.678;2023-06-10T14:03:30;4.82;;;3.60;;
15474;SDS011;7839;50.462;9.678;2023-06-10T14:10:10;5.60;;;3.88;;
15474;SDS011;7839;50.462;9.678;2023-06-10T14:16:50;6.03;;;3.85;;
15474;SDS011;7839;50.462;9.678;2023-06-10T14:23:31;3.75;;;3.45;;
15474;SDS011;7839;50.462;9.678;2023-06-10T14:30:11;4.40;;;3.97;;
15474;SDS011;7839;50.462;9.678;2023-06-10T14:36:51;5.05;;;4.00;;
15474;SDS011;7839;50.462;9.678;2023-06-10T14:43:31;4.70;;;4.35;;
15474;SDS011;7839;50.462;9.678;2023-06-10T14:50:12;10.63;;;4.35;;
15474;SDS011;7839;50.462;9.678;2023-06-10T14:56:52;4.93;;;4.53;;
15474;SDS011;7839;50.462;9.678;2023-06-10T15:03:32;4.22;;;3.83;;
15474;SDS011;7839;50.462;9.678;2023-06-10T15:10:12;4.43;;;3.92;;
15474;SDS011;7839;50.462;9.678;2023-06-10T15:16:53;6.50;;;4.93;;
15474;SDS011;7839;50.462;9.678;2023-06-10T15:23:33;6.28;;;4.70;;
15474;SDS011;7839;50.462;9.678;2023-06-10T15:30:13;4.40;;;4.00;;
15474;SDS011;7839;50.462;9.678;2023-06-10T15:36:54;4.70;;;4.28;;
15474;SDS011;7839;50.462;9.678;2023-06-10T15:43:34;4.47;;;4.18;;
15474;SDS011;7839;50.462;9.678;2023-06-10T15:50:15;4.60;;;4.30;;
15474;SDS011;7839;50.462;9.678;2023-06-10T15:56:55;5.50;;;4.50;;
15474;SDS011;7839;50.462;9.678;2023-06-10T16:03:35;4.53;;;4.13;;
15474;SDS011;7839;50.462;9.678;2023-06-10T16:10:16;4.38;;;4.07;;
15474;SDS011;7839;50.462;9.678;2023-06-10T16:16:56;4.45;;;4.05;;
15474;SDS011;7839;50.462;9.678;2023-06-10T16:23:40;4.47;;;4.13;;
15474;SDS011;7839;50.462;9.678;2023-06-10T16:30:20;4.32;;;4.03;;
15474;SDS011;7839;50.462;9.678;2023-06-10T16:37:01;4.60;;;4.30;;
15474;SDS011;7839;50.462;9.678;2023-06-10T16:43:41;4.88;;;4.40;;
15474;SDS011;7839;50.462;9.678;2023-06-10T16:50:21;4.13;;;3.85;;
15474;SDS011;7839;50.462;9.678;2023-06-10T16:57:01;4.70;;;4.30;;
15474;SDS011;7839;50.462;9.678;2023-06-10T17:03:41;4.07;;;3.78;;
15474;SDS011;7839;50.462;9.678;2023-06-10T17:10:22;4.50;;;4.17;;
15474;SDS011;7839;50.462;9.678;2023-06-10T17:17:02;4.10;;;3.80;;
15474;SDS011;7839;50.462;9.678;2023-06-10T17:23:42;4.97;;;4.47;;
15474;SDS011;7839;50.462;9.678;2023-06-10T17:30:23;3.75;;;3.45;;
15474;SDS011;7839;50.462;9.678;2023-06-10T17:37:03;3.80;;;3.55;;
15474;SDS011;7839;50.462;9.678;2023-06-10T17:43:43;5.20;;;4.80;;
15474;SDS011;7839;50.462;9.678;2023-06-10T17:50:24;3.88;;;3.67;;
15474;SDS011;7839;50.462;9.678;2023-06-10T17:57:05;5.38;;;4.28;;
15474;SDS011;7839;50.462;9.678;2023-06-10T18:03:45;5.53;;;5.05;;
15474;SDS011;7839;50.462;9.678;2023-06-10T18:10:25;3.45;;;3.25;;
15474;SDS011;7839;50.462;9.678;2023-06-10T18:17:05;4.20;;;3.90;;
15474;SDS011;7839;50.462;9.678;2023-06-10T18:23:46;5.13;;;4.72;;
15474;SDS011;7839;50.462;9.678;2023-06-10T18:30:26;4.05;;;3.65;;
15474;SDS011;7839;50.462;9.678;2023-06-10T18:37:06;5.50;;;4.18;;
15474;SDS011;7839;50.462;9.678;2023-06-10T18:43:47;5.57;;;5.07;;
15474;SDS011;7839;50.462;9.678;2023-06-10T18:50:27;3.58;;;3.38;;
15474;SDS011;7839;50.462;9.678;2023-06-10T18:57:08;3.47;;;3.28;;
15474;SDS011;7839;50.462;9.678;2023-06-10T19:03:49;3.67;;;3.47;;
15474;SDS011;7839;50.462;9.678;2023-06-10T19:10:29;3.45;;;3.25;;
15474;SDS011;7839;50.462;9.678;2023-06-10T19:17:10;3.15;;;2.85;;
15474;SDS011;7839;50.462;9.678;2023-06-10T19:23:50;4.03;;;3.72;;
15474;SDS011;7839;50.462;9.678;2023-06-10T19:30:31;3.10;;;2.90;;
15474;SDS011;7839;50.462;9.678;2023-06-10T19:37:13;3.22;;;3.03;;
15474;SDS011;7839;50.462;9.678;2023-06-10T19:43:53;2.95;;;2.75;;
15474;SDS011;7839;50.462;9.678;2023-06-10T19:50:34;2.80;;;2.60;;
15474;SDS011;7839;50.462;9.678;2023-06-10T19:57:15;2.80;;;2.70;;
15474;SDS011;7839;50.462;9.678;2023-06-10T20:03:55;3.90;;;3.60;;
15474;SDS011;7839;50.462;9.678;2023-06-10T20:10:35;2.80;;;2.60;;
15474;SDS011;7839;50.462;9.678;2023-06-10T20:17:17;7.25;;;6.53;;
15474;SDS011;7839;50.462;9.678;2023-06-10T20:23:57;3.20;;;3.00;;
15474;SDS011;7839;50.462;9.678;2023-06-10T20:30:37;3.03;;;2.83;;
15474;SDS011;7839;50.462;9.678;2023-06-10T20:37:18;2.88;;;2.70;;
15474;SDS011;7839;50.462;9.678;2023-06-10T20:43:58;5.40;;;4.60;;
15474;SDS011;7839;50.462;9.678;2023-06-10T20:50:38;3.90;;;3.70;;
15474;SDS011;7839;50.462;9.678;2023-06-10T20:57:19;6.60;;;6.00;;
15474;SDS011;7839;50.462;9.678;2023-06-10T21:03:59;3.85;;;3.65;;
15474;SDS011;7839;50.462;9.678;2023-06-10T21:10:39;3.53;;;3.33;;
15474;SDS011;7839;50.462;9.678;2023-06-10T21:17:20;4.15;;;3.85;;
15474;SDS011;7839;50.462;9.678;2023-06-10T21:24:00;3.72;;;3.42;;
15474;SDS011;7839;50.462;9.678;2023-06-10T21:30:40;3.63;;;3.42;;
15474;SDS011;7839;50.462;9.678;2023-06-10T21:37:21;6.85;;;6.22;;
15474;SDS011;7839;50.462;9.678;2023-06-10T21:44:01;5.43;;;4.78;;
15474;SDS011;7839;50.462;9.678;2023-06-10T21:50:41;4.20;;;3.80;;
15474;SDS011;7839;50.462;9.678;2023-06-10T21:57:21;3.47;;;3.28;;
15474;SDS011;7839;50.462;9.678;2023-06-10T22:04:02;4.10;;;3.75;;
15474;SDS011;7839;50.462;9.678;2023-06-10T22:10:42;3.10;;;2.90;;
15474;SDS011;7839;50.462;9.678;2023-06-10T22:17:22;3.10;;;2.90;;
15474;SDS011;7839;50.462;9.678;2023-06-10T22:24:03;3.30;;;3.10;;
15474;SDS011;7839;50.462;9.678;2023-06-10T22:30:43;3.38;;;3.17;;
15474;SDS011;7839;50.462;9.678;2023-06-10T22:37:24;3.03;;;2.83;;
15474;SDS011;7839;50.462;9.678;2023-06-10T22:44:04;3.10;;;2.90;;
15474;SDS011;7839;50.462;9.678;2023-06-10T22:50:44;5.05;;;4.53;;
15474;SDS011;7839;50.462;9.678;2023-06-10T22:57:24;5.45;;;4.15;;
15474;SDS011;7839;50.462;9.678;2023-06-10T23:04:05;2.90;;;2.70;;
15474;SDS011;7839;50.462;9.678;2023-06-10T23:10:45;2.72;;;2.53;;
15474;SDS011;7839;50.462;9.678;2023-06-10T23:17:25;3.15;;;2.95;;
15474;SDS011;7839;50.462;9.678;2023-06-10T23:24:08;2.47;;;2.38;;
15474;SDS011;7839;50.462;9.678;2023-06-10T23:30:48;2.55;;;2.35;;
15474;SDS011;7839;50.462;9.678;2023-06-10T23:37:28;2.25;;;2.15;;
15474;SDS011;7839;50.462;9.678;2023-06-10T23:44:12;2.08;;;1.98;;
15474;SDS011;7839;50.462;9.678;2023-06-10T23:50:52;3.67;;;3.38;;
15474;SDS011;7839;50.462;9.678;2023-06-10T23:57:33;3.23;;;3.03;;
